Time;durP1;ratioP1;P1;durP2;ratioP2;P2;SDS_P1;SDS_P2;PMS_P1;PMS_P2;Temp;Humidity;BMP_temperature;BMP_pressure;BME280_temperature;BME280_humidity;BME280_pressure;Samples;Min_cycle;Max_cycle;Signal;HPM_P1;HPM_P2
2022/08/20 00:00:54;;;;;;;;;;;;;;;23.03;63.01;100535.31;4972489;28;6864;-77
2022/08/20 00:03:28;;;;;;;;;;;;;;;23.02;63.13;100528.34;4957376;28;7236;-78
2022/08/20 00:06:15;;;;;;;;;;;;;;;23.02;63.37;100528.34;4963742;28;6862;-78
2022/08/20 00:08:43;;;;;;;;;;;;;;;23.01;63.52;100522.25;4992402;28;6994;-79
2022/08/20 00:11:12;;;;;;;;;;;;;;;23.02;63.63;100525.75;4992130;28;7753;-78
2022/08/20 00:13:44;;;;;;;;;;;;;;;23.00;63.92;100519.66;4958460;28;6918;-78
2022/08/20 00:16:12;;;;;;;;;;;;;;;22.98;63.62;100521.38;4990531;28;6811;-78
2022/08/20 00:18:39;;;;;;;;;;;;;;;22.99;63.90;100517.91;4958521;28;6804;-78
2022/08/20 00:21:12;;;;;;;;;;;;;;;23.00;63.83;100509.19;4973455;28;7264;-78
2022/08/20 00:23:41;;;;;;;;;;;;;;;23.03;63.90;100509.19;4976788;28;7107;-78
2022/08/20 00:26:09;;;;;;;;;;;;;;;23.06;63.61;100509.16;4965986;28;7140;-78
2022/08/20 00:28:37;;;;;;;;;;;;;;;23.10;63.89;100507.41;4987647;28;7326;-78
2022/08/20 00:31:08;;;;;;;;;;;;;;;23.09;63.64;100516.13;4987967;28;7045;-78
2022/08/20 00:33:35;;;;;;;;;;;;;;;23.09;63.53;100522.25;4974148;28;7199;-78
2022/08/20 00:36:05;;;;;;;;;;;;;;;23.07;63.38;100518.75;4970582;28;7192;-78
2022/08/20 00:38:33;;;;;;;;;;;;;;;23.02;63.50;100518.75;4962066;28;7254;-79
2022/08/20 00:41:00;;;;;;;;;;;;;;;23.00;63.69;100504.81;4976272;28;6938;-78
2022/08/20 00:43:41;;;;;;;;;;;;;;;22.98;63.63;100513.53;4960709;28;7764;-78
2022/08/20 00:46:18;;;;;;;;;;;;;;;22.95;63.41;100501.38;4959405;28;6823;-78
2022/08/20 00:48:49;;;;;;;;;;;;;;;22.94;63.97;100506.56;4990943;28;6800;-78
2022/08/20 00:51:38;;;;;;;;;;;;;;;22.94;63.65;100503.97;4958205;28;6962;-78
2022/08/20 00:54:40;;;;;;;;;;;;;;;22.91;64.42;100497.00;4976481;28;7386;-78
2022/08/20 00:57:35;;;;;;;;;;;;;;;22.87;64.24;100496.13;4972610;28;7319;-78
2022/08/20 01:00:10;;;;;;;;;;;;;;;22.88;64.09;100499.63;4988508;28;7017;-78
2022/08/20 01:02:36;;;;;;;;;;;;;;;22.88;64.22;100490.03;4959059;28;7154;-77
2022/08/20 01:05:08;;;;;;;;;;;;;;;22.90;63.98;100503.09;4962406;28;6868;-77
2022/08/20 01:07:36;;;;;;;;;;;;;;;22.89;64.02;100503.97;4964090;28;7022;-77
2022/08/20 01:10:13;;;;;;;;;;;;;;;22.89;64.53;100497.03;4990001;28;7102;-77
2022/08/20 01:12:45;;;;;;;;;;;;;;;22.93;64.29;100503.09;4977622;28;6812;-77
2022/08/20 01:15:16;;;;;;;;;;;;;;;22.96;64.62;100497.00;4957137;28;7314;-77
2022/08/20 01:17:53;;;;;;;;;;;;;;;23.02;64.59;100487.38;4966988;28;7212;-77
2022/08/20 01:20:30;;;;;;;;;;;;;;;23.06;64.09;100496.09;4976239;28;7002;-77
2022/08/20 01:23:29;;;;;;;;;;;;;;;23.10;63.84;100495.22;4960397;28;7215;-77
2022/08/20 01:26:16;;;;;;;;;;;;;;;23.11;63.57;100491.75;4978247;28;7238;-77
2022/08/20 01:29:20;;;;;;;;;;;;;;;23.13;63.91;100491.72;4977756;28;7283;-77
2022/08/20 01:31:45;;;;;;;;;;;;;;;23.09;64.41;100498.72;4977290;28;7221;-77
2022/08/20 01:34:17;;;;;;;;;;;;;;;23.10;63.72;100496.97;4961258;28;6951;-77
2022/08/20 01:36:51;;;;;;;;;;;;;;;23.10;64.12;100497.84;4973742;28;7012;-77
2022/08/20 01:39:29;;;;;;;;;;;;;;;23.12;64.25;100503.03;4988423;28;6803;-77
2022/08/20 01:42:25;;;;;;;;;;;;;;;23.15;63.79;100503.91;4989658;28;8222;-77
2022/08/20 01:44:51;;;;;;;;;;;;;;;23.18;63.96;100513.50;4960147;28;7219;-77
2022/08/20 01:47:28;;;;;;;;;;;;;;;23.22;63.92;100510.00;4960588;28;6788;-77
2022/08/20 01:49:59;;;;;;;;;;;;;;;23.25;63.96;100498.66;4961520;28;6816;-77
2022/08/20 01:52:56;;;;;;;;;;;;;;;23.29;64.27;100506.53;4978085;28;7265;-77
2022/08/20 01:55:22;;;;;;;;;;;;;;;23.32;63.99;100500.41;4976888;28;6804;-77
2022/08/20 01:57:48;;;;;;;;;;;;;;;23.36;64.01;100503.91;4989034;28;8093;-76
2022/08/20 02:00:18;;;;;;;;;;;;;;;23.39;64.31;100501.25;4961646;28;7130;-76
2022/08/20 02:02:43;;;;;;;;;;;;;;;23.41;64.07;100502.13;4962654;28;6958;-77
2022/08/20 02:05:10;;;;;;;;;;;;;;;23.45;64.32;100493.41;4961940;28;6784;-77
2022/08/20 02:07:37;;;;;;;;;;;;;;;23.48;63.95;100501.22;4961297;28;6800;-76
2022/08/20 02:10:07;;;;;;;;;;;;;;;23.49;64.46;100496.88;4977957;28;7202;-76
2022/08/20 02:12:34;;;;;;;;;;;;;;;23.52;63.82;100502.09;4976681;28;6806;-75
2022/08/20 02:15:00;;;;;;;;;;;;;;;23.56;63.82;100506.41;4974399;28;7448;-75
2022/08/20 02:17:26;;;;;;;;;;;;;;;23.58;64.49;100497.69;4963145;28;6830;-75
2022/08/20 02:20:02;;;;;;;;;;;;;;;23.60;64.07;100502.94;4990473;28;6993;-75
2022/08/20 02:22:50;;;;;;;;;;;;;;;23.63;63.78;100500.28;4975620;28;6812;-75
2022/08/20 02:25:17;;;;;;;;;;;;;;;23.62;63.73;100501.19;4959322;28;7122;-75
2022/08/20 02:27:47;;;;;;;;;;;;;;;23.60;64.34;100505.56;4961678;28;7868;-75
2022/08/20 02:30:22;;;;;;;;;;;;;;;23.57;64.49;100510.81;4974535;28;7025;-75
2022/08/20 02:32:48;;;;;;;;;;;;;;;23.53;64.06;100507.31;4972196;28;12862;-75
2022/08/20 02:35:15;;;;;;;;;;;;;;;23.50;64.37;100507.31;4982894;28;6849;-75
2022/08/20 02:37:43;;;;;;;;;;;;;;;23.48;64.08;100505.63;4961702;28;6800;-75
2022/08/20 02:40:16;;;;;;;;;;;;;;;23.44;64.17;100510.84;4978534;28;7137;-75
2022/08/20 02:42:43;;;;;;;;;;;;;;;23.40;64.49;100510.84;4974935;28;6792;-76
2022/08/20 02:45:15;;;;;;;;;;;;;;;23.37;64.17;100508.25;4975723;28;8664;-76
2022/08/20 02:47:45;;;;;;;;;;;;;;;23.33;64.47;100507.38;4975593;28;6808;-76
2022/08/20 02:50:17;;;;;;;;;;;;;;;23.34;64.28;100514.34;4976372;28;6812;-75
2022/08/20 02:52:44;;;;;;;;;;;;;;;23.34;64.79;100514.34;4959841;28;7169;-77
2022/08/20 02:55:12;;;;;;;;;;;;;;;23.36;64.70;100516.97;4956932;28;7565;-77
2022/08/20 02:57:39;;;;;;;;;;;;;;;23.36;64.74;100514.34;4976343;28;8593;-77
2022/08/20 03:00:15;;;;;;;;;;;;;;;23.36;64.29;100509.13;4962251;28;7236;-77
2022/08/20 03:02:41;;;;;;;;;;;;;;;23.37;64.82;100516.97;4959645;28;11182;-77
2022/08/20 03:05:08;;;;;;;;;;;;;;;23.37;64.01;100513.47;4977589;28;7273;-77
2022/08/20 03:07:55;;;;;;;;;;;;;;;23.36;64.10;100512.59;4998058;28;6836;-77
2022/08/20 03:10:30;;;;;;;;;;;;;;;23.34;64.11;100516.97;4995344;28;7077;-77
2022/08/20 03:12:58;;;;;;;;;;;;;;;23.34;64.53;100511.75;4994045;28;6937;-77
2022/08/20 03:15:24;;;;;;;;;;;;;;;23.33;64.20;100517.84;4966151;28;6976;-77
2022/08/20 03:17:50;;;;;;;;;;;;;;;23.33;63.83;100522.22;4965007;28;7203;-77
2022/08/20 03:20:16;;;;;;;;;;;;;;;23.32;64.29;100525.69;4978561;28;7284;-77
2022/08/20 03:22:41;;;;;;;;;;;;;;;23.33;64.43;100515.22;4959316;28;7221;-77
2022/08/20 03:25:08;;;;;;;;;;;;;;;23.32;64.20;100513.50;4966608;28;7042;-77
2022/08/20 03:27:34;;;;;;;;;;;;;;;23.30;63.92;100507.41;4966394;28;7085;-77
2022/08/20 03:29:59;;;;;;;;;;;;;;;23.29;64.25;100510.91;4980229;28;7018;-77
2022/08/20 03:32:25;;;;;;;;;;;;;;;23.27;64.31;100503.03;4962309;28;7249;-77
2022/08/20 03:34:51;;;;;;;;;;;;;;;23.27;64.31;100513.47;4975302;28;7250;-77
2022/08/20 03:37:16;;;;;;;;;;;;;;;23.26;64.10;100518.69;4975446;28;7209;-77
2022/08/20 03:39:42;;;;;;;;;;;;;;;23.24;64.18;100513.50;4975452;28;7196;-77
2022/08/20 03:42:08;;;;;;;;;;;;;;;23.23;64.12;100511.75;4965962;28;6780;-77
2022/08/20 03:44:35;;;;;;;;;;;;;;;23.22;64.25;100514.38;4957276;28;6780;-77
2022/08/20 03:47:06;;;;;;;;;;;;;;;23.22;64.24;100524.81;4960091;28;6796;-77
2022/08/20 03:49:33;;;;;;;;;;;;;;;23.22;63.77;100524.81;4961818;28;6884;-77
2022/08/20 03:52:00;;;;;;;;;;;;;;;23.21;64.25;100523.09;4966023;28;7194;-77
2022/08/20 03:54:25;;;;;;;;;;;;;;;23.19;64.08;100527.44;4974220;28;6792;-77
2022/08/20 03:56:51;;;;;;;;;;;;;;;23.16;64.30;100523.09;4964824;28;7191;-77
2022/08/20 03:59:17;;;;;;;;;;;;;;;23.13;63.70;100521.34;4980675;28;7042;-77
2022/08/20 04:01:43;;;;;;;;;;;;;;;23.10;64.17;100516.13;4955329;28;7010;-76
2022/08/20 04:04:09;;;;;;;;;;;;;;;23.11;64.32;100522.22;4963190;28;7190;-77
2022/08/20 04:06:35;;;;;;;;;;;;;;;23.10;64.20;100526.59;4973957;28;6948;-76
2022/08/20 04:09:00;;;;;;;;;;;;;;;23.10;64.10;100531.81;4965826;28;6764;-76
2022/08/20 04:11:26;;;;;;;;;;;;;;;23.09;64.12;100527.47;4994787;28;7203;-76
2022/08/20 04:13:51;;;;;;;;;;;;;;;23.09;63.99;100532.69;4964879;28;6801;-76
2022/08/20 04:16:17;;;;;;;;;;;;;;;23.08;64.24;100538.81;4979817;28;6985;-76
2022/08/20 04:18:43;;;;;;;;;;;;;;;23.06;63.79;100547.50;4971927;28;6855;-76
2022/08/20 04:21:09;;;;;;;;;;;;;;;23.01;63.90;100542.28;4962289;28;6965;-76
2022/08/20 04:23:34;;;;;;;;;;;;;;;22.99;64.01;100554.50;4989627;28;6933;-76
2022/08/20 04:26:00;;;;;;;;;;;;;;;22.97;63.77;100553.59;4957318;28;6954;-76
2022/08/20 04:28:27;;;;;;;;;;;;;;;22.93;63.80;100555.34;4963063;28;6941;-76
2022/08/20 04:30:55;;;;;;;;;;;;;;;22.91;64.01;100554.47;4958482;28;7211;-76
2022/08/20 04:33:23;;;;;;;;;;;;;;;22.89;63.77;100559.72;4974403;28;6800;-75
2022/08/20 04:35:49;;;;;;;;;;;;;;;22.88;63.54;100557.97;4994207;28;7192;-76
2022/08/20 04:38:18;;;;;;;;;;;;;;;22.84;63.57;100566.69;4968401;28;6792;-76
2022/08/20 04:40:56;;;;;;;;;;;;;;;22.81;63.57;100569.31;4987364;28;8479;-77
2022/08/20 04:43:27;;;;;;;;;;;;;;;22.75;63.93;100575.41;4961656;28;7060;-76
2022/08/20 04:45:56;;;;;;;;;;;;;;;22.71;63.43;100567.56;4993961;28;7818;-76
2022/08/20 04:48:24;;;;;;;;;;;;;;;22.66;63.77;100575.41;4975857;28;6804;-76
2022/08/20 04:50:52;;;;;;;;;;;;;;;22.60;63.28;100571.03;4960608;28;7208;-77
2022/08/20 04:53:22;;;;;;;;;;;;;;;22.57;63.39;100583.22;4979711;28;7007;-76
2022/08/20 04:55:50;;;;;;;;;;;;;;;22.53;63.41;100581.47;4991960;28;6977;-76
2022/08/20 04:58:33;;;;;;;;;;;;;;;22.48;63.72;100595.38;4964454;28;6793;-76
2022/08/20 05:01:05;;;;;;;;;;;;;;;22.45;63.68;100594.47;4960036;28;7084;-76
2022/08/20 05:03:31;;;;;;;;;;;;;;;22.43;63.75;100598.84;4979354;28;7209;-76
2022/08/20 05:05:57;;;;;;;;;;;;;;;22.40;63.60;100597.09;4974596;28;7314;-76
2022/08/20 05:08:25;;;;;;;;;;;;;;;22.39;63.49;100597.06;4990987;28;7065;-76
2022/08/20 05:10:53;;;;;;;;;;;;;;;22.37;63.49;100606.66;4979311;28;6780;-76
2022/08/20 05:13:19;;;;;;;;;;;;;;;22.35;63.42;100598.81;4958456;28;6999;-76
2022/08/20 05:15:47;;;;;;;;;;;;;;;22.32;63.39;100610.13;4976106;28;6961;-75
2022/08/20 05:18:18;;;;;;;;;;;;;;;22.30;63.27;100601.41;4958713;28;6923;-76
2022/08/20 05:20:45;;;;;;;;;;;;;;;22.27;63.25;100611.84;4977099;28;7011;-76
2022/08/20 05:23:13;;;;;;;;;;;;;;;22.25;63.30;100613.59;4958974;28;6816;-76
2022/08/20 05:25:42;;;;;;;;;;;;;;;22.22;63.42;100618.81;4979039;28;6823;-76
2022/08/20 05:28:18;;;;;;;;;;;;;;;22.19;63.60;100624.00;4959037;28;7298;-76
2022/08/20 05:30:45;;;;;;;;;;;;;;;22.16;63.63;100622.28;4962681;28;8004;-76
2022/08/20 05:33:16;;;;;;;;;;;;;;;22.11;63.25;100628.31;4993395;28;7023;-76
2022/08/20 05:35:43;;;;;;;;;;;;;;;22.09;63.38;100635.25;4993780;28;6800;-76
2022/08/20 05:38:14;;;;;;;;;;;;;;;22.04;63.49;100630.91;4974589;28;7369;-76
2022/08/20 05:40:41;;;;;;;;;;;;;;;22.02;63.61;100630.03;4985599;28;7311;-76
2022/08/20 05:43:08;;;;;;;;;;;;;;;22.00;63.38;100634.34;4968121;28;7324;-75
2022/08/20 05:45:37;;;;;;;;;;;;;;;21.97;63.57;100639.56;4960338;28;7261;-75
2022/08/20 05:48:19;;;;;;;;;;;;;;;21.96;63.40;100630.00;4990833;28;6815;-75
2022/08/20 05:50:48;;;;;;;;;;;;;;;21.90;63.28;100633.47;4976796;28;6968;-75
2022/08/20 05:53:15;;;;;;;;;;;;;;;21.85;63.13;100637.78;4943716;28;7186;-75
2022/08/20 05:55:41;;;;;;;;;;;;;;;21.84;63.47;100635.16;4963678;28;7035;-75
2022/08/20 05:58:22;;;;;;;;;;;;;;;21.83;63.43;100631.69;4963655;28;6856;-75
2022/08/20 06:00:50;;;;;;;;;;;;;;;21.84;63.85;100641.25;4988866;28;6808;-75
2022/08/20 06:06:00;;;;;;;;;;;;;;;21.86;63.35;100642.13;4964339;28;6792;-75
2022/08/20 06:08:26;;;;;;;;;;;;;;;21.90;63.68;100640.41;4961213;28;7166;-75
2022/08/20 06:10:51;;;;;;;;;;;;;;;21.92;63.22;100638.66;4966547;28;7262;-75
2022/08/20 06:13:17;;;;;;;;;;;;;;;21.94;63.11;100633.47;4977517;28;7364;-75
2022/08/20 06:15:42;;;;;;;;;;;;;;;21.96;63.34;100640.44;4962415;28;7122;-75
2022/08/20 06:18:09;;;;;;;;;;;;;;;21.96;63.50;100636.94;4960039;28;6847;-75
2022/08/20 06:20:36;;;;;;;;;;;;;;;21.99;63.29;100637.84;4964581;28;6800;-75
2022/08/20 06:23:04;;;;;;;;;;;;;;;22.03;63.21;100639.63;4968485;28;9540;-74
2022/08/20 06:25:30;;;;;;;;;;;;;;;22.09;63.79;100643.97;4973555;28;6847;-75
2022/08/20 06:27:55;;;;;;;;;;;;;;;22.17;63.49;100644.00;4960535;28;8349;-74
2022/08/20 06:30:21;;;;;;;;;;;;;;;22.22;63.35;100642.28;4957674;28;6804;-75
2022/08/20 06:32:48;;;;;;;;;;;;;;;22.25;62.93;100655.34;4960626;28;7158;-75
2022/08/20 06:35:14;;;;;;;;;;;;;;;22.28;62.91;100657.09;4961248;28;6900;-75
2022/08/20 06:37:40;;;;;;;;;;;;;;;22.30;63.13;100652.75;4977832;28;6826;-74
2022/08/20 06:40:15;;;;;;;;;;;;;;;22.30;62.97;100661.44;4992903;28;6967;-74
2022/08/20 06:42:42;;;;;;;;;;;;;;;22.32;63.01;100662.34;4960258;28;7037;-74
2022/08/20 06:45:15;;;;;;;;;;;;;;;22.35;62.61;100664.06;4969514;28;7226;-74
2022/08/20 06:47:44;;;;;;;;;;;;;;;22.34;62.76;100658.00;4973080;28;6935;-74
2022/08/20 06:50:18;;;;;;;;;;;;;;;22.36;62.57;100658.00;4977109;28;6992;-74
2022/08/20 06:52:46;;;;;;;;;;;;;;;22.37;62.83;100654.53;4973011;28;7414;-74
2022/08/20 06:55:14;;;;;;;;;;;;;;;22.38;62.28;100656.28;4943528;28;7140;-74
2022/08/20 06:57:40;;;;;;;;;;;;;;;22.38;62.58;100660.59;4975850;28;6851;-74
2022/08/20 07:00:13;;;;;;;;;;;;;;;22.36;61.98;100655.41;4974228;28;7182;-74
2022/08/20 07:02:39;;;;;;;;;;;;;;;22.37;62.24;100658.88;4974224;28;11811;-74
2022/08/20 07:05:06;;;;;;;;;;;;;;;22.37;62.14;100654.53;4975476;28;7046;-74
2022/08/20 07:07:33;;;;;;;;;;;;;;;22.37;62.30;100662.38;4994765;28;6784;-74
2022/08/20 07:10:01;;;;;;;;;;;;;;;22.38;62.43;100664.09;4957805;28;6808;-74
2022/08/20 07:12:26;;;;;;;;;;;;;;;22.40;62.34;100662.38;4973787;28;6812;-74
2022/08/20 07:14:52;;;;;;;;;;;;;;;22.43;62.60;100666.72;4958624;28;6784;-74
2022/08/20 07:17:17;;;;;;;;;;;;;;;22.49;62.22;100664.16;4962617;28;6780;-74
2022/08/20 07:19:43;;;;;;;;;;;;;;;22.55;62.58;100655.47;4958831;28;6860;-74
2022/08/20 07:22:13;;;;;;;;;;;;;;;22.64;62.44;100662.47;4960398;28;7262;-75
2022/08/20 07:24:39;;;;;;;;;;;;;;;22.77;62.58;100659.00;4969699;28;6804;-75
2022/08/20 07:27:05;;;;;;;;;;;;;;;22.92;62.71;100657.28;4992022;28;7035;-74
2022/08/20 07:32:33;;;;;;;;;;;;;;;23.01;62.60;100658.13;4965273;28;6788;-74
2022/08/20 07:32:35;;;;;;;;;;;;;;;23.20;62.89;100665.13;4958907;28;6971;-74
2022/08/20 07:35:10;;;;;;;;;;;;;;;23.36;61.95;100672.09;4986452;28;7117;-75
2022/08/20 07:37:40;;;;;;;;;;;;;;;23.43;61.37;100666.00;4953732;28;7883;-74
2022/08/20 07:40:12;;;;;;;;;;;;;;;23.49;61.53;100682.59;4976224;28;6984;-75
2022/08/20 07:42:39;;;;;;;;;;;;;;;23.50;61.27;100674.72;4963180;28;6815;-75
2022/08/20 07:45:12;;;;;;;;;;;;;;;23.51;60.37;100678.22;4993376;28;6783;-75
2022/08/20 07:47:43;;;;;;;;;;;;;;;23.47;60.56;100676.47;4979851;28;6980;-75
2022/08/20 07:50:13;;;;;;;;;;;;;;;23.40;60.55;100670.38;4960691;28;6983;-75
2022/08/20 07:52:38;;;;;;;;;;;;;;;23.39;60.56;100669.50;4966580;28;6816;-74
2022/08/20 07:55:11;;;;;;;;;;;;;;;23.38;60.04;100672.13;4960641;28;6925;-74
2022/08/20 07:57:38;;;;;;;;;;;;;;;23.40;60.38;100672.97;4961841;28;6971;-74
2022/08/20 08:00:08;;;;;;;;;;;;;;;23.40;60.54;100680.81;4963655;28;6991;-75
2022/08/20 08:02:35;;;;;;;;;;;;;;;23.38;60.35;100687.81;4959791;28;7279;-75
2022/08/20 08:05:01;;;;;;;;;;;;;;;23.36;59.69;100690.41;4961987;28;7171;-75
2022/08/20 08:07:27;;;;;;;;;;;;;;;23.33;59.96;100694.81;4962758;28;6923;-75
2022/08/20 08:09:55;;;;;;;;;;;;;;;23.32;59.81;100700.88;4966231;28;6941;-75
2022/08/20 08:12:27;;;;;;;;;;;;;;;23.31;60.55;100697.41;4962994;28;6957;-74
2022/08/20 08:14:55;;;;;;;;;;;;;;;23.34;60.31;100697.41;4961733;28;7082;-75
2022/08/20 08:17:20;;;;;;;;;;;;;;;23.38;59.95;100701.78;4958671;28;9546;-75
2022/08/20 08:19:49;;;;;;;;;;;;;;;23.42;59.86;100700.88;4978307;28;7611;-74
2022/08/20 08:22:18;;;;;;;;;;;;;;;23.47;59.92;100697.38;4964120;28;6997;-75
2022/08/20 08:24:45;;;;;;;;;;;;;;;23.52;60.04;100711.34;4962112;28;6852;-75
2022/08/20 08:27:17;;;;;;;;;;;;;;;23.52;59.65;100700.88;4959093;28;6961;-75
2022/08/20 08:29:44;;;;;;;;;;;;;;;23.53;60.00;100706.13;4978553;28;6804;-75
2022/08/20 08:32:10;;;;;;;;;;;;;;;23.57;59.97;100700.00;4961215;28;6793;-75
2022/08/20 08:34:38;;;;;;;;;;;;;;;23.65;60.25;100701.75;4959797;28;7404;-75
2022/08/20 08:37:04;;;;;;;;;;;;;;;23.72;60.02;100706.09;4993693;28;6880;-77
2022/08/20 08:39:32;;;;;;;;;;;;;;;23.79;59.45;100696.47;4976593;28;6868;-75
2022/08/20 08:42:02;;;;;;;;;;;;;;;23.87;59.68;100702.56;4956969;28;6824;-75
2022/08/20 08:44:37;;;;;;;;;;;;;;;23.95;60.15;100700.81;4956506;28;7075;-75
2022/08/20 08:47:35;;;;;;;;;;;;;;;24.05;59.71;100699.06;4990186;28;7450;-75
2022/08/20 08:50:05;;;;;;;;;;;;;;;24.12;59.32;100710.38;4964490;28;7233;-75
2022/08/20 08:52:39;;;;;;;;;;;;;;;24.16;59.10;100709.50;4986959;28;7287;-75
2022/08/20 08:55:14;;;;;;;;;;;;;;;24.20;59.21;100711.22;4962907;28;6824;-75
2022/08/20 08:57:40;;;;;;;;;;;;;;;24.26;58.87;100713.81;4970446;28;7848;-75
2022/08/20 09:00:22;;;;;;;;;;;;;;;24.36;58.98;100725.13;4959508;28;6860;-75
2022/08/20 09:03:08;;;;;;;;;;;;;;;24.49;59.26;100719.84;4974316;28;11467;-75
2022/08/20 09:05:45;;;;;;;;;;;;;;;24.59;58.51;100723.28;4959789;28;6808;-75
2022/08/20 09:08:18;;;;;;;;;;;;;;;24.59;57.89;100731.13;4956619;28;6950;-75
2022/08/20 09:10:44;;;;;;;;;;;;;;;24.55;57.75;100736.41;4957119;28;7021;-74
2022/08/20 09:13:10;;;;;;;;;;;;;;;24.47;57.60;100740.81;4993600;28;6983;-74
2022/08/20 09:15:36;;;;;;;;;;;;;;;24.43;57.36;100728.56;4967730;28;6860;-74
2022/08/20 09:18:02;;;;;;;;;;;;;;;24.43;57.80;100728.56;4950491;28;7291;-75
2022/08/20 09:20:30;;;;;;;;;;;;;;;24.48;57.64;100728.56;4963728;28;7168;-74
2022/08/20 09:22:56;;;;;;;;;;;;;;;24.55;57.69;100731.16;4961289;28;7083;-74
2022/08/20 09:25:23;;;;;;;;;;;;;;;24.63;58.00;100730.25;4941835;28;6957;-75
2022/08/20 09:27:48;;;;;;;;;;;;;;;24.71;57.84;100735.44;4960783;28;6788;-75
2022/08/20 09:30:15;;;;;;;;;;;;;;;24.75;57.79;100745.91;4963845;28;6788;-75
2022/08/20 09:32:41;;;;;;;;;;;;;;;24.82;57.19;100736.28;4979621;28;6929;-75
2022/08/20 09:35:08;;;;;;;;;;;;;;;24.89;57.30;100731.88;4979914;28;7183;-75
2022/08/20 09:37:34;;;;;;;;;;;;;;;24.96;56.71;100734.47;4977729;28;7219;-75
2022/08/20 09:39:59;;;;;;;;;;;;;;;25.08;57.00;100728.25;4966841;28;7125;-75
2022/08/20 09:42:30;;;;;;;;;;;;;;;25.22;57.03;100735.16;4975676;28;7233;-75
2022/08/20 09:44:57;;;;;;;;;;;;;;;25.36;56.57;100722.78;4979342;28;7267;-75
2022/08/20 09:47:24;;;;;;;;;;;;;;;25.52;56.65;100738.44;4978427;28;6978;-75
2022/08/20 09:49:50;;;;;;;;;;;;;;;25.63;56.34;100731.34;4960774;28;7035;-75
2022/08/20 09:52:28;;;;;;;;;;;;;;;25.72;55.80;100735.63;4980617;28;7150;-74
2022/08/20 09:55:00;;;;;;;;;;;;;;;25.76;55.79;100733.84;4980806;28;7202;-74
2022/08/20 09:57:29;;;;;;;;;;;;;;;25.87;55.65;100739.00;4967875;28;7101;-74
2022/08/20 10:00:07;;;;;;;;;;;;;;;25.92;55.45;100732.81;4960073;28;7124;-74
2022/08/20 10:02:33;;;;;;;;;;;;;;;26.03;55.61;100726.56;4974155;28;6804;-74
2022/08/20 10:04:58;;;;;;;;;;;;;;;26.16;55.54;100725.53;4960169;28;6947;-74
2022/08/20 10:07:24;;;;;;;;;;;;;;;26.31;55.73;100729.75;4965275;28;6772;-74
2022/08/20 10:09:50;;;;;;;;;;;;;;;26.58;55.59;100732.06;4985869;28;6784;-74
2022/08/20 10:12:15;;;;;;;;;;;;;;;26.88;55.18;100735.19;4972808;28;6924;-74
2022/08/20 10:14:41;;;;;;;;;;;;;;;27.10;54.26;100729.59;4961601;28;6832;-74
2022/08/20 10:17:07;;;;;;;;;;;;;;;27.21;53.41;100732.91;4993698;28;6944;-75
2022/08/20 10:19:33;;;;;;;;;;;;;;;27.25;53.38;100731.97;4960896;28;7086;-74
2022/08/20 10:21:59;;;;;;;;;;;;;;;27.38;53.19;100734.41;4982570;28;6978;-75
2022/08/20 10:24:25;;;;;;;;;;;;;;;27.53;52.87;100726.25;4978877;28;7237;-75
2022/08/20 10:26:56;;;;;;;;;;;;;;;27.70;52.01;100736.50;4975377;28;7427;-74
2022/08/20 10:29:22;;;;;;;;;;;;;;;27.86;51.36;100731.81;4975353;28;7209;-74
2022/08/20 10:31:48;;;;;;;;;;;;;;;28.10;50.89;100729.63;4978828;28;6803;-75
2022/08/20 10:34:14;;;;;;;;;;;;;;;28.51;51.05;100731.44;4959936;28;10021;-75
2022/08/20 10:36:41;;;;;;;;;;;;;;;28.78;50.10;100734.34;4964099;28;7030;-75
2022/08/20 10:39:07;;;;;;;;;;;;;;;28.90;49.54;100733.22;4960880;28;6999;-75
2022/08/20 10:41:33;;;;;;;;;;;;;;;28.96;48.38;100741.88;4966513;28;6884;-76
2022/08/20 10:43:59;;;;;;;;;;;;;;;29.04;49.65;100735.53;4961851;28;6867;-75
2022/08/20 10:46:25;;;;;;;;;;;;;;;29.51;49.49;100738.81;4958939;28;6780;-75
2022/08/20 10:48:50;;;;;;;;;;;;;;;29.90;48.04;100736.91;4962795;28;7114;-74
2022/08/20 10:51:16;;;;;;;;;;;;;;;30.43;47.51;100727.53;4963965;28;6979;-74
2022/08/20 10:53:42;;;;;;;;;;;;;;;31.22;46.14;100735.63;4965438;28;6938;-74
2022/08/20 10:56:07;;;;;;;;;;;;;;;31.75;44.03;100730.34;4979837;28;6776;-74
2022/08/20 10:58:33;;;;;;;;;;;;;;;32.25;43.30;100729.47;4964287;28;6776;-74
2022/08/20 11:00:59;;;;;;;;;;;;;;;32.96;41.43;100736.50;4978353;28;7136;-74
2022/08/20 11:03:24;;;;;;;;;;;;;;;33.66;39.67;100731.78;4963170;28;6772;-74
2022/08/20 11:05:50;;;;;;;;;;;;;;;34.35;38.38;100723.41;4972750;28;7188;-74
2022/08/20 11:08:16;;;;;;;;;;;;;;;34.92;37.07;100717.19;4960170;28;6804;-74
2022/08/20 11:10:42;;;;;;;;;;;;;;;35.23;35.88;100728.97;4966229;28;7327;-74
2022/08/20 11:13:08;;;;;;;;;;;;;;;35.17;35.24;100732.81;4977254;28;6998;-74
2022/08/20 11:15:41;;;;;;;;;;;;;;;35.21;35.06;100733.53;4954433;28;6804;-74
2022/08/20 11:18:07;;;;;;;;;;;;;;;34.81;34.62;100730.16;4980757;28;6792;-74
2022/08/20 11:20:32;;;;;;;;;;;;;;;34.67;35.26;100734.38;4952790;28;7190;-74
2022/08/20 11:22:59;;;;;;;;;;;;;;;34.53;35.82;100729.72;4979629;28;6868;-75
2022/08/20 11:25:25;;;;;;;;;;;;;;;34.70;36.49;100731.56;4998513;28;6855;-75
2022/08/20 11:27:53;;;;;;;;;;;;;;;34.87;35.88;100729.88;4966011;28;6894;-75
2022/08/20 11:30:28;;;;;;;;;;;;;;;34.99;35.33;100731.03;4960307;28;7153;-75
2022/08/20 11:32:54;;;;;;;;;;;;;;;34.65;35.34;100740.69;4977018;28;7261;-74
2022/08/20 11:35:22;;;;;;;;;;;;;;;34.19;35.09;100728.59;4998683;28;6860;-74
2022/08/20 11:37:54;;;;;;;;;;;;;;;34.23;34.79;100729.31;4968440;28;6843;-75
2022/08/20 11:40:20;;;;;;;;;;;;;;;34.56;34.40;100728.69;4965345;28;7166;-74
2022/08/20 11:42:46;;;;;;;;;;;;;;;34.96;34.13;100723.22;4968056;28;6792;-75
2022/08/20 11:45:13;;;;;;;;;;;;;;;35.38;32.94;100723.81;4983801;28;7233;-75
2022/08/20 11:47:40;;;;;;;;;;;;;;;35.90;32.58;100720.22;4965700;28;6796;-75
2022/08/20 11:50:15;;;;;;;;;;;;;;;36.44;31.83;100728.91;4962710;28;6859;-75
2022/08/20 11:52:41;;;;;;;;;;;;;;;36.83;30.93;100738.28;4998293;28;7279;-75
2022/08/20 11:55:10;;;;;;;;;;;;;;;37.12;30.75;100729.53;4982663;28;7183;-75
2022/08/20 11:57:41;;;;;;;;;;;;;;;37.35;29.53;100722.84;4968095;28;6804;-75
2022/08/20 12:00:13;;;;;;;;;;;;;;;37.65;28.82;100713.91;4955782;28;7365;-75
2022/08/20 12:02:40;;;;;;;;;;;;;;;37.93;29.11;100714.88;4981035;28;12722;-74
2022/08/20 12:05:09;;;;;;;;;;;;;;;38.03;28.33;100710.69;4951393;28;6983;-74
2022/08/20 12:07:35;;;;;;;;;;;;;;;38.14;28.22;100717.16;4968948;28;6796;-75
2022/08/20 12:10:00;;;;;;;;;;;;;;;38.26;27.88;100712.84;4967467;28;6796;-75
2022/08/20 12:12:26;;;;;;;;;;;;;;;38.42;27.72;100710.03;4961867;28;7006;-75
2022/08/20 12:14:53;;;;;;;;;;;;;;;38.73;27.60;100714.25;4947240;28;7235;-75
2022/08/20 12:17:25;;;;;;;;;;;;;;;39.07;26.73;100710.28;4997392;28;7182;-75
2022/08/20 12:19:54;;;;;;;;;;;;;;;39.26;26.34;100704.53;4963427;28;6887;-75
2022/08/20 12:22:20;;;;;;;;;;;;;;;39.31;25.90;100713.13;4965463;28;8104;-74
2022/08/20 12:24:45;;;;;;;;;;;;;;;39.31;25.97;100707.78;4966920;28;7160;-74
2022/08/20 12:27:27;;;;;;;;;;;;;;;39.28;26.21;100703.47;4999392;28;7230;-74
2022/08/20 12:29:57;;;;;;;;;;;;;;;39.07;26.34;100695.09;4965701;28;8036;-75
2022/08/20 12:32:26;;;;;;;;;;;;;;;39.19;26.68;100703.25;4960854;28;6838;-75
2022/08/20 12:34:53;;;;;;;;;;;;;;;39.30;26.26;100700.66;4974583;28;7082;-75
2022/08/20 12:37:23;;;;;;;;;;;;;;;39.28;25.73;100707.97;4982057;28;6800;-74
2022/08/20 12:39:52;;;;;;;;;;;;;;;39.17;25.73;100700.69;4967664;28;7127;-74
2022/08/20 12:42:19;;;;;;;;;;;;;;;38.56;25.24;100704.69;4963723;28;6966;-75
2022/08/20 12:44:46;;;;;;;;;;;;;;;37.86;25.66;100709.06;4996441;28;6780;-75
2022/08/20 12:47:17;;;;;;;;;;;;;;;37.67;25.60;100711.16;4965492;28;7025;-75
2022/08/20 12:49:49;;;;;;;;;;;;;;;37.65;25.43;100696.06;4951009;28;7236;-74
2022/08/20 12:52:19;;;;;;;;;;;;;;;37.64;25.36;100704.19;4968106;28;6796;-75
2022/08/20 12:54:45;;;;;;;;;;;;;;;37.57;25.00;100705.50;4978889;28;7052;-75
2022/08/20 12:57:22;;;;;;;;;;;;;;;37.57;24.38;100697.50;4981100;28;7046;-75
2022/08/20 12:59:47;;;;;;;;;;;;;;;37.51;24.21;100699.56;4974701;28;7876;-75